Alicia, AR (72410)

7:56 AM CDT on April 26, 2017 (GMT -0500)
Cash | | Change Station
Active Advisory: Flood Warning

Elev 243 ft 35.81 °N, 90.93 °W | Updated 36 seconds ago

Mostly Cloudy
Mostly Cloudy
67.0 °F
Feels Like 67.0 °F
N
8.0
Wind Variable Wind from SE
Gusts 10.0 mph

Today
High -- | Low -- °F
--% Chance of Precip.
Yesterday
High -- | Low -- °F
Precip. -- in
Pressure 29.58 in
Visibility 10.0 miles
Clouds Scattered Clouds 2900 ft
Mostly Cloudy 4900 ft
Dew Point 66 °F
Humidity 95%
Rainfall 0.00 in
Snow Depth Not available.
6:17 AM 7:47 PM
New Moon, 0% visible
SPECI KM19 261252Z AUTO 17010KT 10SM SCT029 BKN049 20/17 A2958 RMK AO2 TSNO
Pressure 29.58 in
Visibility 10.0 miles
Clouds Scattered Clouds 2900 ft
Mostly Cloudy 4900 ft
Dew Point 66 °F
Humidity 95%
Rainfall 0.00 in
Snow Depth Not available.
6:17 AM 7:47 PM
New Moon, 0% visible
SPECI KM19 261252Z AUTO 17010KT 10SM SCT029 BKN049 20/17 A2958 RMK AO2 TSNO

Get Your Daily Forecast Email!

Thanks for signing up!

Be on the lookout for a verification email in your inbox.

You'll start receiving severe weather alerts in your inbox..

×

10-Day Weather Forecast

Almanac

Astronomy

Apr. 26, 2017 Rise Set
Actual Time
Civil Twilight
Nautical Twilight
Astronomical Twilight
Moon
Length of Visible Light
Length of Day
Tomorrow will be .
, % of the Moon is Illuminated

Today's Extremes

State Highs State Lows

Community

WunderPhotos

WunderBlog® & News

Nearby

Air Quality

  Air Quality AQ Index Pollutant
Not available.

Snow Depth

Station Depth Elevation

Earthquake Activity

City Distance Mag. Time & Date
Minimum magnitude displayed is 2.5.

Coastal Water Temperatures

Place Temperature

Stations

Nearby Weather Stations

Station Location Temp. Windchill Dew Point Humidity Wind Precip. Elev Updated Type
                   

Watches & Warnings

Flood Warning
Issued: 9:21 PM CDT Apr. 25, 2017 – National Weather Service

The Flood Warning continues for
the Black River at Black Rock.
* Until further notice... or until the warning is cancelled.
* At 9:00 PM Tuesday the stage was 19.1 feet.
* Minor flooding is occurring and minor flooding is forecast.
* Flood stage is 14.0 feet.
* Forecast... the river will continue rising to near 19.5 feet by
Saturday morning. Additional rainfall is expected later this
week with potentially heavy rainfall this weekend. Please monitor
latest forecasts for updates.
* Impacts at 20.0 feet... agricultural land is flooding along both
banks of the river in Lawrence, Independence, and Jackson counties.
Minor flooding in Powhatan community and courthouse State Park.


             Fld observed forecast 6 am
location stg stg day time Wed Thu Fri Sat sun

Black River
Black Rock 14 19.1 Tue 09 PM 19.0 19.1 19.3 19.5 19.2




Lat... Lon 3570 9140 3591 9125 3612 9115 3610 9101
3588 9110 3564 9128




Brown